Time;durP1;ratioP1;P1;durP2;ratioP2;P2;SDS_P1;SDS_P2;PMS_P1;PMS_P2;Temp;Humidity;BMP_temperature;BMP_pressure;BME280_temperature;BME280_humidity;BME280_pressure;Samples;Min_cycle;Max_cycle;Signal;HPM_P1;HPM_P2
2023/12/12 00:00:16;;;;;;;0.20;0.20;;;;;;;6.10;100.00;95808.44;5046762;28;20415;-77
2023/12/12 00:03:03;;;;;;;0.10;0.10;;;;;;;6.11;100.00;95806.59;5046126;28;20377;-76
2023/12/12 00:05:48;;;;;;;0.20;0.20;;;;;;;6.10;100.00;95810.28;5046126;28;20060;-77
2023/12/12 00:08:34;;;;;;;0.10;0.10;;;;;;;6.11;100.00;95812.72;5048204;28;20123;-76
2023/12/12 00:11:20;;;;;;;0.10;0.10;;;;;;;6.04;100.00;95811.22;5049724;28;20040;-76
2023/12/12 00:14:06;;;;;;;0.10;0.10;;;;;;;5.87;100.00;95811.13;5047750;28;20634;-76
2023/12/12 00:16:52;;;;;;;0.15;0.15;;;;;;;5.86;100.00;95817.47;5048755;28;20029;-76
2023/12/12 00:19:45;;;;;;;0.13;0.13;;;;;;;5.73;100.00;95820.38;5048304;28;20071;-77
2023/12/12 00:22:30;;;;;;;0.20;0.20;;;;;;;5.72;100.00;95819.56;5046022;28;20168;-77
2023/12/12 00:25:16;;;;;;;0.20;0.20;;;;;;;5.76;100.00;95815.44;5048258;28;20623;-77
2023/12/12 00:28:02;;;;;;;0.10;0.10;;;;;;;5.79;100.00;95814.16;5046639;28;20033;-76
2023/12/12 00:30:48;;;;;;;0.10;0.10;;;;;;;5.80;100.00;95819.22;5047479;28;20037;-77
2023/12/12 00:33:34;;;;;;;0.20;0.20;;;;;;;5.73;100.00;95809.75;5047627;28;20175;-77
2023/12/12 00:36:20;;;;;;;0.10;0.10;;;;;;;5.72;100.00;95813.47;5048574;28;20437;-77
2023/12/12 00:39:07;;;;;;;0.20;0.20;;;;;;;5.77;100.00;95814.38;5047240;28;20124;-77
2023/12/12 00:41:53;;;;;;;0.17;0.17;;;;;;;5.73;100.00;95805.25;5047745;28;20033;-77
2023/12/12 00:44:39;;;;;;;0.10;0.10;;;;;;;5.80;100.00;95811.25;5048212;28;20037;-77
2023/12/12 00:47:25;;;;;;;0.20;0.20;;;;;;;5.82;100.00;95803.84;5045925;28;20040;-77
2023/12/12 00:50:11;;;;;;;0.10;0.10;;;;;;;5.85;100.00;95803.41;5038221;28;20036;-77
2023/12/12 00:52:57;;;;;;;0.17;0.17;;;;;;;5.87;100.00;95814.59;5045037;28;20058;-77
2023/12/12 00:55:43;;;;;;;0.20;0.20;;;;;;;5.92;100.00;95807.81;5047583;28;20493;-77
2023/12/12 00:58:29;;;;;;;0.10;0.10;;;;;;;5.83;100.00;95802.00;5045248;28;20067;-77
2023/12/12 01:01:14;;;;;;;0.10;0.10;;;;;;;5.81;100.00;95804.91;5043291;28;20044;-77
2023/12/12 01:04:00;;;;;;;0.20;0.20;;;;;;;5.79;100.00;95801.69;5045768;28;20481;-77
2023/12/12 01:06:46;;;;;;;0.20;0.20;;;;;;;5.83;100.00;95799.34;5048254;28;20079;-77
2023/12/12 01:09:32;;;;;;;0.13;0.13;;;;;;;5.81;100.00;95796.94;5045085;28;20044;-77
2023/12/12 01:12:18;;;;;;;0.20;0.20;;;;;;;5.85;100.00;95791.97;5046121;28;20070;-77
2023/12/12 01:15:04;;;;;;;0.15;0.15;;;;;;;5.75;100.00;95797.06;5045961;28;20028;-77
2023/12/12 01:17:50;;;;;;;0.10;0.10;;;;;;;5.57;100.00;95793.50;5047324;28;20033;-77
2023/12/12 01:20:36;;;;;;;0.20;0.20;;;;;;;5.30;100.00;95800.34;5029988;28;20040;-77
2023/12/12 01:23:22;;;;;;;0.20;0.20;;;;;;;5.14;100.00;95795.75;5045544;28;20036;-77
2023/12/12 01:26:08;;;;;;;0.10;0.10;;;;;;;5.02;100.00;95795.72;5047098;28;20041;-77
2023/12/12 01:28:54;;;;;;;0.10;0.10;;;;;;;4.93;100.00;95794.44;5047117;28;20487;-78
2023/12/12 01:31:40;;;;;;;0.20;0.20;;;;;;;4.83;100.00;95799.50;5035387;28;20041;-77
2023/12/12 01:34:26;;;;;;;0.10;0.10;;;;;;;4.79;100.00;95793.03;5044725;28;20412;-78
2023/12/12 01:37:12;;;;;;;0.10;0.10;;;;;;;4.76;100.00;95794.31;5047325;28;20045;-77
2023/12/12 01:39:58;;;;;;;0.20;0.20;;;;;;;4.79;100.00;95793.03;5048367;28;20731;-78
2023/12/12 01:42:44;;;;;;;0.17;0.17;;;;;;;4.86;100.00;95788.44;5047277;28;20334;-78
2023/12/12 01:45:30;;;;;;;0.20;0.20;;;;;;;5.10;100.00;95795.38;5047731;28;20067;-78
2023/12/12 01:48:15;;;;;;;0.13;0.13;;;;;;;5.28;100.00;95789.13;5031270;28;20029;-77
2023/12/12 01:51:02;;;;;;;0.10;0.10;;;;;;;5.35;100.00;95791.69;5032438;28;20443;-78
2023/12/12 01:53:51;;;;;;;0.20;0.20;;;;;;;5.46;100.00;95791.69;5044139;28;20079;-77
2023/12/12 01:56:38;;;;;;;0.15;0.15;;;;;;;5.55;100.00;95797.44;5045350;28;20352;-77
2023/12/12 01:59:25;;;;;;;0.10;0.10;;;;;;;5.58;100.00;95791.66;5047363;28;20078;-77
2023/12/12 02:02:12;;;;;;;0.20;0.20;;;;;;;5.64;100.00;95793.38;5037021;28;20044;-77
2023/12/12 02:04:58;;;;;;;0.20;0.20;;;;;;;5.69;100.00;95798.00;5046987;28;20071;-77
2023/12/12 02:07:45;;;;;;;0.10;0.10;;;;;;;5.74;100.00;95795.44;5046555;28;20126;-77
2023/12/12 02:10:31;;;;;;;0.10;0.10;;;;;;;5.74;100.00;95790.94;5047079;28;20043;-76
2023/12/12 02:13:17;;;;;;;0.20;0.20;;;;;;;5.77;100.00;95801.13;5045386;28;20489;-76
2023/12/12 02:16:04;;;;;;;0.10;0.10;;;;;;;5.56;100.00;95794.56;5044032;28;20045;-76
2023/12/12 02:18:49;;;;;;;0.20;0.20;;;;;;;5.55;100.00;95794.78;5046370;28;20028;-76
2023/12/12 02:21:35;;;;;;;0.17;0.17;;;;;;;5.52;100.00;95784.63;5046868;28;20041;-76
2023/12/12 02:24:21;;;;;;;0.20;0.20;;;;;;;5.44;100.00;95792.94;5036106;28;20056;-76
2023/12/12 02:27:07;;;;;;;0.20;0.20;;;;;;;5.38;100.00;95791.25;5047992;28;20547;-76
2023/12/12 02:29:53;;;;;;;0.20;0.20;;;;;;;5.38;100.00;95799.19;5049344;28;20161;-76
2023/12/12 02:32:39;;;;;;;0.20;0.20;;;;;;;5.39;100.00;95800.81;5048573;28;20040;-76
2023/12/12 02:35:25;;;;;;;0.20;0.20;;;;;;;5.37;100.00;95795.75;5046766;28;20049;-76
2023/12/12 02:38:13;;;;;;;0.17;0.17;;;;;;;5.41;100.00;95799.53;5050467;28;20041;-76
2023/12/12 02:40:59;;;;;;;0.20;0.20;;;;;;;5.30;100.00;95790.53;5047561;28;20122;-76
2023/12/12 02:43:45;;;;;;;0.20;0.20;;;;;;;5.29;100.00;95788.09;5046219;28;20087;-76
2023/12/12 02:46:31;;;;;;;0.10;0.10;;;;;;;5.26;100.00;95791.22;5048484;28;20116;-76
2023/12/12 02:49:17;;;;;;;0.15;0.15;;;;;;;5.21;100.00;95777.84;5047902;28;20571;-77
2023/12/12 02:52:03;;;;;;;0.20;0.20;;;;;;;5.23;100.00;95786.41;5050545;28;20662;-77
2023/12/12 02:54:49;;;;;;;0.20;0.20;;;;;;;5.22;100.00;95788.25;5046711;28;20047;-77
2023/12/12 02:57:35;;;;;;;0.10;0.10;;;;;;;5.22;100.00;95793.53;5046355;28;20219;-77
2023/12/12 03:00:21;;;;;;;0.10;0.10;;;;;;;5.29;100.00;95801.38;5049894;28;20051;-76
2023/12/12 03:03:07;;;;;;;0.20;0.20;;;;;;;5.22;100.00;95782.94;5039024;28;20184;-77
2023/12/12 03:05:52;;;;;;;0.10;0.10;;;;;;;5.21;100.00;95796.41;5047237;28;20041;-77
2023/12/12 03:08:38;;;;;;;0.20;0.20;;;;;;;5.22;100.00;95795.41;5049223;28;20041;-77
2023/12/12 03:11:24;;;;;;;0.10;0.10;;;;;;;5.35;100.00;95794.34;5051139;28;20049;-77
2023/12/12 03:14:10;;;;;;;0.20;0.20;;;;;;;5.25;100.00;95793.06;5049190;28;20036;-77
2023/12/12 03:16:59;;;;;;;0.30;0.30;;;;;;;5.25;100.00;95792.28;5049184;28;20044;-76
2023/12/12 03:19:45;;;;;;;0.10;0.10;;;;;;;5.22;100.00;95790.91;5032525;28;20331;-77
2023/12/12 03:22:31;;;;;;;0.10;0.10;;;;;;;5.18;100.00;95791.56;5047252;28;20033;-77
2023/12/12 03:25:16;;;;;;;0.20;0.20;;;;;;;5.16;100.00;95793.66;5047641;28;20810;-77
2023/12/12 03:28:02;;;;;;;0.20;0.20;;;;;;;5.23;100.00;95800.47;5045973;28;20380;-77
2023/12/12 03:30:48;;;;;;;0.10;0.10;;;;;;;5.28;100.00;95802.41;5047051;28;20067;-77
2023/12/12 03:33:34;;;;;;;0.20;0.20;;;;;;;5.32;100.00;95795.63;5046887;28;20077;-77
2023/12/12 03:36:20;;;;;;;0.20;0.20;;;;;;;5.31;100.00;95797.47;5033751;28;20044;-77
2023/12/12 03:39:06;;;;;;;0.20;0.20;;;;;;;5.40;100.00;95794.47;5046634;28;20483;-77
2023/12/12 03:41:52;;;;;;;0.20;0.20;;;;;;;5.32;100.00;95793.75;5046847;28;20029;-77
2023/12/12 03:44:38;;;;;;;0.13;0.13;;;;;;;5.29;100.00;95793.41;5048366;28;20037;-77
2023/12/12 03:47:24;;;;;;;0.20;0.20;;;;;;;5.33;100.00;95783.97;5048016;28;20041;-77
2023/12/12 03:50:10;;;;;;;0.10;0.10;;;;;;;5.32;100.00;95782.34;5047094;28;20067;-77
2023/12/12 03:52:56;;;;;;;0.20;0.20;;;;;;;5.26;100.00;95773.47;5033246;28;20044;-77
2023/12/12 03:55:42;;;;;;;0.20;0.20;;;;;;;5.34;100.00;95774.16;5048149;28;20553;-77
2023/12/12 03:58:28;;;;;;;0.20;0.20;;;;;;;5.32;100.00;95769.88;5045662;28;20028;-77
2023/12/12 04:01:13;;;;;;;0.20;0.20;;;;;;;5.26;100.00;95780.63;5047104;28;20119;-77
2023/12/12 04:04:01;;;;;;;0.17;0.17;;;;;;;5.25;100.00;95763.91;5044533;28;20048;-77
2023/12/12 04:06:48;;;;;;;0.10;0.10;;;;;;;5.34;100.00;95774.16;5048725;28;20483;-77
2023/12/12 04:09:34;;;;;;;0.20;0.20;;;;;;;5.41;100.00;95773.00;5045780;28;20025;-77
2023/12/12 04:12:19;;;;;;;0.20;0.20;;;;;;;5.38;100.00;95770.81;5047787;28;20167;-77
2023/12/12 04:15:06;;;;;;;0.20;0.20;;;;;;;5.38;100.00;95770.00;5047940;28;20040;-77
2023/12/12 04:17:52;;;;;;;0.20;0.20;;;;;;;5.42;100.00;95771.16;5038764;28;20075;-77
2023/12/12 04:20:38;;;;;;;0.20;0.20;;;;;;;5.40;100.00;95767.94;5045048;28;20866;-77
2023/12/12 04:23:24;;;;;;;0.20;0.20;;;;;;;5.36;100.00;95756.16;5046220;28;20464;-77
2023/12/12 04:26:11;;;;;;;0.20;0.20;;;;;;;5.45;100.00;95750.28;5049258;28;20140;-77
2023/12/12 04:28:59;;;;;;;0.20;0.20;;;;;;;5.35;100.00;95746.56;5035769;28;20471;-77
2023/12/12 04:31:49;;;;;;;0.20;0.20;;;;;;;5.25;100.00;95734.72;5046533;28;20032;-77
2023/12/12 04:34:35;;;;;;;0.20;0.20;;;;;;;5.29;100.00;95729.72;5046349;28;20048;-77
2023/12/12 04:37:21;;;;;;;0.20;0.20;;;;;;;5.20;100.00;95721.31;5045533;28;20044;-76
2023/12/12 04:40:07;;;;;;;0.20;0.20;;;;;;;5.23;100.00;95725.38;5045304;28;20039;-76
2023/12/12 04:42:53;;;;;;;0.15;0.15;;;;;;;5.22;100.00;95724.56;5034409;28;20038;-76
2023/12/12 04:45:42;;;;;;;0.20;0.20;;;;;;;5.21;100.00;95732.75;5031462;28;20041;-77
2023/12/12 04:48:27;;;;;;;0.20;0.20;;;;;;;5.27;100.00;95729.16;5047533;28;20056;-77
2023/12/12 04:51:14;;;;;;;0.20;0.20;;;;;;;5.26;100.00;95725.72;5045169;28;20033;-76
2023/12/12 04:53:59;;;;;;;0.10;0.10;;;;;;;5.26;100.00;95723.06;5043880;28;20078;-76
2023/12/12 04:56:45;;;;;;;0.20;0.20;;;;;;;5.28;100.00;95722.81;5046553;28;20400;-77
2023/12/12 04:59:31;;;;;;;0.20;0.20;;;;;;;5.29;100.00;95712.00;5045047;28;20041;-77
2023/12/12 05:02:17;;;;;;;0.20;0.20;;;;;;;5.30;100.00;95716.25;5034689;28;20071;-76
2023/12/12 05:05:03;;;;;;;0.20;0.20;;;;;;;5.30;100.00;95716.25;5034444;28;20528;-76
2023/12/12 05:07:49;;;;;;;0.20;0.20;;;;;;;5.28;100.00;95723.63;5050562;28;20060;-76
2023/12/12 05:10:35;;;;;;;0.13;0.13;;;;;;;5.18;100.00;95720.75;5048056;28;20481;-76
2023/12/12 05:13:21;;;;;;;0.20;0.20;;;;;;;5.09;100.00;95724.00;5037225;28;20044;-76
2023/12/12 05:16:08;;;;;;;0.10;0.10;;;;;;;5.02;100.00;95724.13;5049109;28;20056;-76
2023/12/12 05:18:54;;;;;;;0.20;0.20;;;;;;;4.91;100.00;95722.28;5048203;28;20048;-76
2023/12/12 05:21:40;;;;;;;0.20;0.20;;;;;;;4.80;100.00;95718.56;5047491;28;20041;-76
2023/12/12 05:24:26;;;;;;;0.20;0.20;;;;;;;4.69;100.00;95709.59;5049736;28;20044;-77
2023/12/12 05:27:12;;;;;;;0.20;0.20;;;;;;;4.60;100.00;95705.66;5046532;28;20608;-77
2023/12/12 05:29:57;;;;;;;0.17;0.17;;;;;;;4.52;100.00;95700.72;5036474;28;20127;-77
2023/12/12 05:32:43;;;;;;;0.20;0.20;;;;;;;4.43;100.00;95704.69;5045783;28;20527;-77
2023/12/12 05:35:29;;;;;;;0.17;0.17;;;;;;;4.34;100.00;95701.56;5040121;28;20069;-77
2023/12/12 05:38:15;;;;;;;0.20;0.20;;;;;;;4.31;100.00;95698.59;5046987;28;20485;-77
2023/12/12 05:41:01;;;;;;;0.20;0.20;;;;;;;4.26;100.00;95704.56;5048817;28;20553;-77
2023/12/12 05:43:47;;;;;;;0.20;0.20;;;;;;;4.22;100.00;95694.66;5047451;28;20047;-77
2023/12/12 05:46:33;;;;;;;0.20;0.20;;;;;;;4.18;100.00;95705.69;5049930;28;20072;-77
2023/12/12 05:49:21;;;;;;;0.20;0.20;;;;;;;4.14;100.00;95701.88;5048276;28;20033;-77
2023/12/12 05:52:07;;;;;;;0.20;0.20;;;;;;;4.11;100.00;95697.03;5047033;28;20468;-77
2023/12/12 05:54:53;;;;;;;0.10;0.10;;;;;;;4.12;100.00;95703.94;5036535;28;20552;-77
2023/12/12 05:57:39;;;;;;;0.20;0.20;;;;;;;4.23;100.00;95705.03;5053324;28;20374;-77
2023/12/12 06:00:27;;;;;;;0.10;0.10;;;;;;;4.42;100.00;95701.25;5051759;28;22132;-77
2023/12/12 06:03:13;;;;;;;0.17;0.17;;;;;;;4.55;100.00;95702.09;5049304;28;20055;-77
2023/12/12 06:06:02;;;;;;;0.20;0.20;;;;;;;4.65;100.00;95703.13;5051909;28;20041;-77
2023/12/12 06:08:47;;;;;;;0.17;0.17;;;;;;;4.77;100.00;95707.63;5049257;28;20123;-77
2023/12/12 06:11:33;;;;;;;0.20;0.20;;;;;;;4.79;100.00;95700.25;5038076;28;20141;-77
2023/12/12 06:14:19;;;;;;;0.20;0.20;;;;;;;4.84;100.00;95705.69;5050708;28;20033;-77
2023/12/12 06:17:06;;;;;;;0.20;0.20;;;;;;;4.93;100.00;95699.00;5051124;28;20045;-77
2023/12/12 06:19:52;;;;;;;0.20;0.20;;;;;;;4.96;100.00;95706.47;5048850;28;20045;-77
2023/12/12 06:22:38;;;;;;;0.20;0.20;;;;;;;4.99;100.00;95709.50;5050115;28;20048;-77
2023/12/12 06:25:24;;;;;;;0.20;0.20;;;;;;;5.06;100.00;95708.53;5052177;28;20154;-77
2023/12/12 06:28:09;;;;;;;0.20;0.20;;;;;;;5.17;100.00;95707.75;5049804;28;20082;-77
2023/12/12 06:30:55;;;;;;;0.20;0.20;;;;;;;5.15;100.00;95715.13;5042922;28;20453;-77
2023/12/12 06:33:41;;;;;;;0.20;0.20;;;;;;;5.19;100.00;95709.09;5050595;28;20061;-77
2023/12/12 06:36:27;;;;;;;0.15;0.15;;;;;;;5.24;100.00;95714.53;5051431;28;20762;-76
2023/12/12 06:39:14;;;;;;;0.20;0.20;;;;;;;5.27;100.00;95714.06;5051353;28;20600;-76
2023/12/12 06:42:00;;;;;;;0.20;0.20;;;;;;;5.22;100.00;95711.31;5052709;28;20036;-76
2023/12/12 06:44:46;;;;;;;0.10;0.10;;;;;;;5.31;100.00;95704.59;5048902;28;20041;-77
2023/12/12 06:47:33;;;;;;;0.17;0.17;;;;;;;5.28;100.00;95698.94;5052077;28;20035;-77
2023/12/12 06:50:19;;;;;;;0.10;0.10;;;;;;;5.26;100.00;95695.72;5049640;28;20481;-77
2023/12/12 06:53:07;;;;;;;0.10;0.10;;;;;;;5.31;100.00;95691.34;5049803;28;20094;-77
2023/12/12 06:55:53;;;;;;;0.20;0.20;;;;;;;5.26;100.00;95699.19;5051438;28;20047;-77
2023/12/12 06:58:39;;;;;;;0.20;0.20;;;;;;;5.40;100.00;95699.75;5050462;28;20570;-77
2023/12/12 07:01:25;;;;;;;0.20;0.20;;;;;;;5.40;100.00;95694.44;5038796;28;20041;-77
2023/12/12 07:04:11;;;;;;;0.17;0.17;;;;;;;5.38;100.00;95687.75;5018269;28;20517;-76
2023/12/12 07:06:57;;;;;;;0.20;0.20;;;;;;;5.35;100.00;95691.66;5028750;28;20259;-77
2023/12/12 07:09:44;;;;;;;0.10;0.10;;;;;;;5.32;100.00;95677.03;5028944;28;20053;-77
2023/12/12 07:12:30;;;;;;;0.20;0.20;;;;;;;5.22;100.00;95668.88;5032899;28;20116;-77
2023/12/12 07:15:16;;;;;;;0.10;0.10;;;;;;;5.10;100.00;95662.78;5029049;28;20076;-77
2023/12/12 07:18:02;;;;;;;0.20;0.20;;;;;;;4.84;100.00;95668.56;5031563;28;20061;-77
2023/12/12 07:20:48;;;;;;;0.17;0.17;;;;;;;4.73;100.00;95668.31;5029107;28;20037;-77
2023/12/12 07:23:34;;;;;;;0.20;0.20;;;;;;;4.67;100.00;95668.44;5030512;28;20560;-76
2023/12/12 07:26:24;;;;;;;0.20;0.20;;;;;;;4.63;100.00;95670.75;5030483;28;20068;-76
2023/12/12 07:29:10;;;;;;;0.20;0.20;;;;;;;4.55;100.00;95665.78;5004083;28;20431;-76
2023/12/12 07:31:56;;;;;;;0.20;0.20;;;;;;;4.47;100.00;95679.38;5029849;28;20041;-76
2023/12/12 07:34:41;;;;;;;0.10;0.10;;;;;;;4.48;100.00;95678.34;5027728;28;20552;-76
2023/12/12 07:37:27;;;;;;;0.20;0.20;;;;;;;4.48;100.00;95673.84;5028916;28;20045;-76
2023/12/12 07:40:13;;;;;;;0.20;0.20;;;;;;;4.49;100.00;95672.00;5030130;28;20549;-76
2023/12/12 07:43:01;;;;;;;0.20;0.20;;;;;;;4.42;100.00;95661.50;5029651;28;20037;-76
2023/12/12 07:45:47;;;;;;;0.10;0.10;;;;;;;4.38;100.00;95667.50;5028002;28;20493;-76
2023/12/12 07:48:33;;;;;;;0.20;0.20;;;;;;;4.32;100.00;95653.31;5026876;28;20049;-75
2023/12/12 07:51:19;;;;;;;0.20;0.20;;;;;;;4.29;100.00;95656.44;5029372;28;20117;-76
2023/12/12 07:54:06;;;;;;;0.20;0.20;;;;;;;4.29;100.00;95650.34;5034302;28;20119;-76
2023/12/12 07:56:53;;;;;;;0.20;0.20;;;;;;;4.21;100.00;95653.31;5028246;28;20043;-75
2023/12/12 07:59:39;;;;;;;0.20;0.20;;;;;;;4.19;100.00;95643.75;5028559;28;20033;-76
2023/12/12 08:02:25;;;;;;;0.20;0.20;;;;;;;4.17;100.00;95648.47;5028856;28;20411;-75
2023/12/12 08:05:11;;;;;;;0.10;0.10;;;;;;;4.12;100.00;95645.69;5033987;28;20112;-76
2023/12/12 08:08:03;;;;;;;0.17;0.17;;;;;;;4.06;100.00;95654.56;5046901;28;20075;-76
2023/12/12 08:10:50;;;;;;;0.20;0.20;;;;;;;3.98;100.00;95662.81;5049978;28;20237;-76
2023/12/12 08:13:36;;;;;;;0.20;0.20;;;;;;;4.01;100.00;95657.06;5047688;28;20044;-76
2023/12/12 08:16:23;;;;;;;0.20;0.20;;;;;;;3.93;100.00;95652.09;5046079;28;20600;-76
2023/12/12 08:19:09;;;;;;;0.20;0.20;;;;;;;3.99;100.00;95645.91;5046905;28;20098;-75
2023/12/12 08:21:55;;;;;;;0.10;0.10;;;;;;;4.02;100.00;95645.44;5050728;28;20037;-77
2023/12/12 08:24:41;;;;;;;0.30;0.30;;;;;;;4.05;100.00;95644.19;5048946;28;20037;-76
2023/12/12 08:27:27;;;;;;;0.20;0.20;;;;;;;4.06;100.00;95641.31;5035516;28;20472;-76
2023/12/12 08:30:13;;;;;;;0.20;0.20;;;;;;;4.04;100.00;95640.72;5049602;28;20029;-76
2023/12/12 08:32:58;;;;;;;0.10;0.10;;;;;;;4.06;100.00;95643.97;5046131;28;20040;-76
2023/12/12 08:35:44;;;;;;;0.20;0.20;;;;;;;4.06;100.00;95649.25;5050186;28;20040;-76
2023/12/12 08:38:30;;;;;;;0.20;0.20;;;;;;;4.12;100.00;95658.13;5046686;28;20069;-76
2023/12/12 08:41:16;;;;;;;0.13;0.13;;;;;;;4.23;100.00;95643.31;5034239;28;20037;-76
2023/12/12 08:44:02;;;;;;;0.20;0.20;;;;;;;4.23;100.00;95638.81;5035964;28;20037;-76
2023/12/12 08:46:48;;;;;;;0.20;0.20;;;;;;;4.33;100.00;95640.88;5041892;28;20483;-76
2023/12/12 08:49:37;;;;;;;0.20;0.20;;;;;;;4.45;100.00;95639.06;5048179;28;20496;-76
2023/12/12 08:52:23;;;;;;;0.20;0.20;;;;;;;4.46;100.00;95636.19;5047336;28;20044;-76
2023/12/12 08:55:10;;;;;;;0.20;0.20;;;;;;;4.61;100.00;95638.38;5050426;28;20690;-76
2023/12/12 08:57:56;;;;;;;0.20;0.20;;;;;;;4.69;100.00;95634.56;5048048;28;20081;-76
2023/12/12 09:00:44;;;;;;;0.20;0.20;;;;;;;4.80;100.00;95628.44;5046073;28;20571;-77
2023/12/12 09:03:30;;;;;;;0.20;0.20;;;;;;;5.01;100.00;95633.16;5047920;28;20053;-77
2023/12/12 09:06:16;;;;;;;0.20;0.20;;;;;;;5.11;100.00;95627.25;5047996;28;20540;-76
2023/12/12 09:09:01;;;;;;;0.20;0.20;;;;;;;5.23;100.00;95637.84;5046567;28;20133;-77
2023/12/12 09:11:48;;;;;;;0.20;0.20;;;;;;;5.31;100.00;95635.63;5050594;28;20036;-76
2023/12/12 09:14:34;;;;;;;0.20;0.20;;;;;;;5.46;100.00;95639.63;5049316;28;20045;-76
2023/12/12 09:17:22;;;;;;;0.13;0.13;;;;;;;5.59;100.00;95626.06;5047856;28;20047;-76
2023/12/12 09:20:09;;;;;;;0.20;0.20;;;;;;;5.69;100.00;95634.22;5049197;28;20408;-76
2023/12/12 09:22:54;;;;;;;0.22;0.20;;;;;;;5.76;100.00;95628.78;5048994;28;20037;-77
2023/12/12 09:25:40;;;;;;;0.20;0.20;;;;;;;5.79;100.00;95623.00;5048603;28;20390;-77
2023/12/12 09:28:26;;;;;;;0.20;0.20;;;;;;;5.95;100.00;95616.94;5048461;28;20048;-77
2023/12/12 09:31:12;;;;;;;0.20;0.20;;;;;;;5.96;100.00;95620.38;5049761;28;20044;-77
2023/12/12 09:33:58;;;;;;;0.10;0.10;;;;;;;6.10;100.00;95600.44;5050853;28;20043;-77
2023/12/12 09:36:44;;;;;;;0.20;0.20;;;;;;;5.95;100.00;95590.38;5049420;28;20032;-77
2023/12/12 09:39:30;;;;;;;0.10;0.10;;;;;;;6.08;100.00;95591.94;5049266;28;20060;-77
2023/12/12 09:42:17;;;;;;;0.20;0.20;;;;;;;6.26;100.00;95586.38;5048214;28;20041;-78
2023/12/12 09:45:13;;;;;;;0.20;0.20;;;;;;;6.35;100.00;95579.59;5049747;28;20049;-77
2023/12/12 09:47:59;;;;;;;0.20;0.20;;;;;;;6.93;100.00;95572.97;5048299;28;20386;-77
2023/12/12 09:50:56;;;;;;;0.20;0.20;;;;;;;6.83;100.00;95575.47;5050291;28;20623;-77
2023/12/12 09:53:46;;;;;;;0.20;0.20;;;;;;;6.89;100.00;95565.72;5049113;28;20396;-75
2023/12/12 09:56:34;;;;;;;0.10;0.10;;;;;;;7.11;100.00;95560.41;5049860;28;20052;-76
2023/12/12 09:59:20;;;;;;;0.20;0.20;;;;;;;6.66;100.00;95554.25;5046616;28;20053;-77
2023/12/12 10:02:08;;;;;;;0.20;0.20;;;;;;;6.45;100.00;95546.22;5047360;28;20086;-76
2023/12/12 10:04:55;;;;;;;0.10;0.10;;;;;;;6.38;100.00;95551.72;5047926;28;20041;-76
2023/12/12 10:07:43;;;;;;;0.17;0.17;;;;;;;6.46;100.00;95551.31;5046600;28;20044;-77
2023/12/12 10:10:29;;;;;;;0.20;0.20;;;;;;;6.64;100.00;95548.38;5032366;28;20040;-76
2023/12/12 10:13:15;;;;;;;0.20;0.20;;;;;;;7.14;100.00;95541.28;5049795;28;20150;-77
2023/12/12 10:16:11;;;;;;;0.30;0.30;;;;;;;8.45;100.00;95511.56;5049124;28;20090;-77
2023/12/12 10:19:01;;;;;;;0.10;0.10;;;;;;;7.67;100.00;95505.88;5035438;28;20136;-76
2023/12/12 10:21:47;;;;;;;0.20;0.20;;;;;;;7.02;100.00;95508.69;5048861;28;20049;-77
2023/12/12 10:24:34;;;;;;;0.10;0.10;;;;;;;6.77;100.00;95503.84;5046921;28;20110;-76
2023/12/12 10:27:20;;;;;;;0.20;0.20;;;;;;;6.74;100.00;95496.38;5046052;28;20037;-76
2023/12/12 10:30:07;;;;;;;0.20;0.20;;;;;;;6.78;100.00;95500.97;5050889;28;20473;-76
2023/12/12 10:32:54;;;;;;;0.20;0.20;;;;;;;6.60;100.00;95495.94;5033614;28;20356;-76
2023/12/12 10:35:44;;;;;;;0.20;0.20;;;;;;;6.65;100.00;95488.03;5038141;28;20060;-76
2023/12/12 10:38:30;;;;;;;0.30;0.30;;;;;;;9.28;100.00;95492.19;5047942;28;20052;-76
2023/12/12 10:41:21;;;;;;;0.40;0.40;;;;;;;13.25;100.00;95469.56;5047764;28;20481;-77
2023/12/12 10:44:08;;;;;;;0.25;0.25;;;;;;;12.29;100.00;95457.97;5051073;28;20480;-77
2023/12/12 10:46:54;;;;;;;0.10;0.10;;;;;;;9.60;100.00;95455.38;5050469;28;20498;-77
2023/12/12 10:49:43;;;;;;;0.20;0.20;;;;;;;8.79;100.00;95461.31;5049593;28;20429;-76
2023/12/12 10:52:30;;;;;;;0.10;0.10;;;;;;;8.32;100.00;95451.47;5037919;28;20639;-76
2023/12/12 10:55:17;;;;;;;0.10;0.10;;;;;;;7.71;100.00;95456.41;5052761;28;20450;-76
2023/12/12 10:58:04;;;;;;;0.10;0.10;;;;;;;7.76;100.00;95453.78;5035847;28;20091;-76
2023/12/12 11:00:50;;;;;;;0.20;0.20;;;;;;;7.37;100.00;95449.72;5050705;28;20406;-76
2023/12/12 11:03:37;;;;;;;0.20;0.20;;;;;;;7.06;100.00;95440.63;5049206;28;20048;-75
2023/12/12 11:06:24;;;;;;;0.10;0.10;;;;;;;6.96;100.00;95436.81;5036901;28;20053;-75
2023/12/12 11:09:11;;;;;;;0.15;0.15;;;;;;;6.93;100.00;95424.03;5050724;28;20033;-76
2023/12/12 11:11:58;;;;;;;0.10;0.10;;;;;;;6.95;100.00;95427.22;5049971;28;20037;-76
2023/12/12 11:14:45;;;;;;;0.20;0.20;;;;;;;6.89;100.00;95424.75;5043088;28;20043;-75
2023/12/12 11:17:32;;;;;;;0.20;0.20;;;;;;;7.09;100.00;95409.03;5049343;28;20072;-76
2023/12/12 11:20:19;;;;;;;0.10;0.10;;;;;;;6.96;100.00;95401.44;5050972;28;20135;-76
2023/12/12 11:23:07;;;;;;;0.20;0.20;;;;;;;6.70;100.00;95398.53;5050218;28;20497;-76
2023/12/12 11:25:53;;;;;;;0.22;0.22;;;;;;;7.27;100.00;95389.22;5052430;28;20040;-76
2023/12/12 11:28:39;;;;;;;0.20;0.20;;;;;;;7.49;100.00;95392.59;5048987;28;20111;-76
2023/12/12 11:31:26;;;;;;;0.20;0.20;;;;;;;7.44;100.00;95384.56;5050452;28;20037;-76
2023/12/12 11:34:12;;;;;;;0.20;0.20;;;;;;;7.37;100.00;95389.28;5011867;28;20539;-76
2023/12/12 11:36:58;;;;;;;0.17;0.17;;;;;;;7.08;100.00;95380.81;5049419;28;20029;-76
2023/12/12 11:39:49;;;;;;;0.13;0.13;;;;;;;6.86;100.00;95377.41;5048928;28;20489;-76
2023/12/12 11:42:35;;;;;;;0.20;0.20;;;;;;;6.85;100.00;95370.50;5049538;28;20623;-76
2023/12/12 11:45:34;;;;;;;0.20;0.20;;;;;;;6.78;100.00;95369.88;5048395;28;20460;-75
2023/12/12 11:48:22;;;;;;;0.20;0.20;;;;;;;6.77;100.00;95362.94;5047127;28;20119;-76
2023/12/12 11:51:34;;;;;;;0.20;0.20;;;;;;;7.42;100.00;95359.28;5050269;28;20452;-75
2023/12/12 11:54:22;;;;;;;0.20;0.20;;;;;;;6.99;100.00;95367.16;5047355;28;20360;-76
2023/12/12 11:57:08;;;;;;;0.17;0.17;;;;;;;6.70;100.00;95365.81;5049536;28;20033;-76
2023/12/12 11:59:54;;;;;;;0.20;0.20;;;;;;;6.69;100.00;95356.22;5049568;28;20473;-76
2023/12/12 12:02:43;;;;;;;0.13;0.13;;;;;;;6.72;100.00;95353.06;5046664;28;20526;-76
2023/12/12 12:05:29;;;;;;;0.20;0.20;;;;;;;6.86;100.00;95346.31;5049403;28;20513;-76
2023/12/12 12:08:15;;;;;;;0.15;0.15;;;;;;;7.14;100.00;95339.88;5047767;28;20266;-76
2023/12/12 12:11:01;;;;;;;0.10;0.10;;;;;;;7.31;100.00;95325.63;5052058;28;20029;-76
2023/12/12 12:13:47;;;;;;;0.17;0.17;;;;;;;7.30;100.00;95319.50;5048790;28;20107;-75
2023/12/12 12:16:33;;;;;;;0.10;0.10;;;;;;;7.24;100.00;95309.91;5042888;28;20032;-76
2023/12/12 12:19:29;;;;;;;0.20;0.20;;;;;;;7.15;100.00;95301.56;5045786;28;20377;-75
2023/12/12 12:22:15;;;;;;;0.20;0.20;;;;;;;7.05;100.00;95300.69;5047699;28;20045;-76
2023/12/12 12:25:01;;;;;;;0.10;0.10;;;;;;;6.95;100.00;95301.44;5049603;28;20525;-77
2023/12/12 12:27:52;;;;;;;0.20;0.20;;;;;;;6.82;100.00;95305.28;5047773;28;20041;-77
2023/12/12 12:30:46;;;;;;;0.20;0.20;;;;;;;6.59;100.00;95303.75;5047471;28;20020;-76
2023/12/12 12:33:37;;;;;;;0.20;0.20;;;;;;;6.43;100.00;95308.13;4996826;28;20485;-77
2023/12/12 12:36:36;;;;;;;0.20;0.20;;;;;;;6.32;100.00;95300.28;5049699;28;20055;-77
2023/12/12 12:39:22;;;;;;;0.20;0.20;;;;;;;6.39;100.00;95295.59;5035283;28;20560;-76
2023/12/12 12:42:08;;;;;;;0.20;0.20;;;;;;;6.42;100.00;95290.56;5034526;28;20032;-75
2023/12/12 12:44:55;;;;;;;0.13;0.13;;;;;;;6.35;100.00;95291.81;5048932;28;20406;-76
2023/12/12 12:47:41;;;;;;;0.10;0.10;;;;;;;6.14;100.00;95291.59;5046656;28;20048;-77
2023/12/12 12:50:27;;;;;;;0.10;0.10;;;;;;;6.21;100.00;95279.97;5050559;28;20941;-76
2023/12/12 12:53:13;;;;;;;0.10;0.10;;;;;;;6.21;100.00;95277.31;5047782;28;20418;-77
2023/12/12 12:55:59;;;;;;;0.13;0.13;;;;;;;6.09;100.00;95262.31;5035270;28;20032;-77
2023/12/12 12:58:45;;;;;;;0.10;0.10;;;;;;;5.94;100.00;95262.16;5043760;28;20110;-76
2023/12/12 13:01:31;;;;;;;0.28;0.28;;;;;;;5.85;100.00;95250.34;5046259;28;20060;-77
2023/12/12 13:04:18;;;;;;;0.10;0.10;;;;;;;6.00;100.00;95244.44;5048388;28;20166;-77